Time;durP1;ratioP1;P1;durP2;ratioP2;P2;SDS_P1;SDS_P2;PMS_P1;PMS_P2;Temp;Humidity;BMP_temperature;BMP_pressure;BME280_temperature;BME280_humidity;BME280_pressure;Samples;Min_cycle;Max_cycle;Signal;HPM_P1;HPM_P2
2023/05/28 00:00:21;;;;;;;10.13;5.35;;;11.10;99.90;;;;;;5029076;28;20111;-78
2023/05/28 00:02:47;;;;;;;11.45;5.00;;;11.10;99.90;;;;;;5045838;28;20026;-76
2023/05/28 00:05:13;;;;;;;10.80;4.78;;;11.00;99.90;;;;;;5049276;28;20024;-78
2023/05/28 00:07:39;;;;;;;7.00;4.78;;;10.90;99.90;;;;;;5029902;28;20097;-77
2023/05/28 00:10:05;;;;;;;15.15;5.35;;;10.90;99.90;;;;;;5028265;28;20028;-76
2023/05/28 00:12:31;;;;;;;16.38;6.28;;;10.90;99.90;;;;;;5030026;28;20519;-78
2023/05/28 00:14:56;;;;;;;10.35;5.90;;;10.80;99.90;;;;;;5046493;28;20029;-78
2023/05/28 00:17:22;;;;;;;10.90;5.10;;;10.80;99.90;;;;;;5029710;28;20033;-79
2023/05/28 00:19:47;;;;;;;9.98;5.50;;;10.70;99.90;;;;;;5050304;28;20025;-77
2023/05/28 00:22:13;;;;;;;12.85;6.03;;;10.70;99.90;;;;;;5050915;28;20020;-78
2023/05/28 00:24:39;;;;;;;11.20;5.47;;;10.70;99.90;;;;;;5046395;28;20565;-76
2023/05/28 00:27:05;;;;;;;12.10;5.85;;;10.70;99.90;;;;;;5045885;28;20025;-77
2023/05/28 00:29:31;;;;;;;12.55;6.22;;;10.70;99.90;;;;;;5044933;28;20028;-77
2023/05/28 00:31:57;;;;;;;13.60;5.38;;;10.60;99.90;;;;;;5028426;28;20040;-77
2023/05/28 00:34:23;;;;;;;10.38;6.03;;;10.60;99.90;;;;;;5045144;28;20023;-78
2023/05/28 00:36:49;;;;;;;12.80;5.72;;;10.60;99.90;;;;;;5045039;28;20752;-76
2023/05/28 00:39:15;;;;;;;11.88;6.15;;;10.60;99.90;;;;;;5027545;28;20025;-77
2023/05/28 00:41:41;;;;;;;11.52;5.93;;;10.50;99.90;;;;;;5026791;28;20037;-78
2023/05/28 00:44:08;;;;;;;9.55;4.85;;;10.50;99.90;;;;;;5029727;28;20036;-77
2023/05/28 00:46:35;;;;;;;9.10;6.07;;;10.50;99.90;;;;;;5042168;28;20025;-76
2023/05/28 00:49:01;;;;;;;11.52;5.30;;;10.40;99.90;;;;;;5048169;28;20104;-76
2023/05/28 00:51:28;;;;;;;10.18;4.95;;;10.40;99.90;;;;;;5030693;28;20033;-77
2023/05/28 00:53:54;;;;;;;12.55;6.13;;;10.30;99.90;;;;;;5024954;28;20027;-77
2023/05/28 00:56:19;;;;;;;10.77;5.25;;;10.30;99.90;;;;;;5030200;28;20112;-77
2023/05/28 00:58:48;;;;;;;11.48;6.28;;;10.30;99.90;;;;;;5044643;28;20104;-76
2023/05/28 01:01:14;;;;;;;7.18;5.35;;;10.30;99.90;;;;;;5043254;28;20476;-76
2023/05/28 01:03:39;;;;;;;12.82;5.85;;;10.30;99.90;;;;;;5043119;28;20075;-77
2023/05/28 01:06:11;;;;;;;13.23;6.47;;;10.30;99.90;;;;;;5045856;28;20033;-77
2023/05/28 01:08:40;;;;;;;10.90;6.70;;;10.30;99.90;;;;;;5028692;28;20681;-76
2023/05/28 01:11:14;;;;;;;15.32;6.90;;;10.30;99.90;;;;;;5046759;28;20565;-76
2023/05/28 01:13:41;;;;;;;13.40;5.97;;;10.20;99.90;;;;;;5047050;28;20025;-76
2023/05/28 01:16:06;;;;;;;18.17;6.40;;;10.20;99.90;;;;;;5028638;28;20032;-77
2023/05/28 01:18:32;;;;;;;9.88;5.80;;;10.10;99.90;;;;;;5046661;28;20025;-76
2023/05/28 01:21:02;;;;;;;17.30;6.53;;;10.10;99.90;;;;;;5029559;28;20707;-78
2023/05/28 01:23:28;;;;;;;10.82;5.85;;;10.10;99.90;;;;;;5028575;28;20079;-77
2023/05/28 01:25:56;;;;;;;10.98;5.25;;;10.10;99.90;;;;;;5044552;28;20033;-76
2023/05/28 01:28:22;;;;;;;7.40;5.28;;;10.00;99.90;;;;;;5027920;28;20047;-78
2023/05/28 01:30:48;;;;;;;10.43;5.93;;;10.00;99.90;;;;;;5046538;28;20036;-76
2023/05/28 01:33:15;;;;;;;11.20;5.60;;;10.00;99.90;;;;;;5045296;28;20551;-77
2023/05/28 01:35:41;;;;;;;11.90;5.40;;;10.00;99.90;;;;;;5045426;28;20387;-76
2023/05/28 01:38:08;;;;;;;11.13;5.55;;;9.90;99.90;;;;;;5026405;28;20107;-77
2023/05/28 01:40:36;;;;;;;10.57;5.68;;;9.90;99.90;;;;;;5046110;28;20200;-77
2023/05/28 01:43:03;;;;;;;14.57;6.57;;;9.90;99.90;;;;;;5045909;28;20492;-77
2023/05/28 01:45:29;;;;;;;10.85;5.50;;;9.80;99.90;;;;;;5045779;28;20149;-76
2023/05/28 01:47:55;;;;;;;11.70;6.35;;;9.80;99.90;;;;;;5045079;28;20025;-77
2023/05/28 01:50:22;;;;;;;12.10;6.53;;;9.80;99.90;;;;;;5045597;28;20025;-77
2023/05/28 01:52:47;;;;;;;12.23;5.03;;;9.80;99.90;;;;;;5050021;28;20093;-77
2023/05/28 01:55:13;;;;;;;9.98;5.68;;;9.70;99.90;;;;;;5049763;28;20536;-78
2023/05/28 01:57:39;;;;;;;11.02;6.22;;;9.70;99.90;;;;;;5050280;28;20029;-77
2023/05/28 02:00:06;;;;;;;10.93;5.88;;;9.70;99.90;;;;;;5032424;28;20038;-76
2023/05/28 02:02:32;;;;;;;12.02;6.05;;;9.70;99.90;;;;;;5031787;28;20044;-76
2023/05/28 02:04:58;;;;;;;13.68;6.47;;;9.70;99.90;;;;;;5049374;28;20100;-76
2023/05/28 02:07:24;;;;;;;12.52;6.53;;;9.70;99.90;;;;;;5031640;28;20112;-77
2023/05/28 02:09:49;;;;;;;8.82;5.75;;;9.70;99.90;;;;;;5048942;28;20021;-77
2023/05/28 02:12:15;;;;;;;14.40;6.95;;;9.70;99.90;;;;;;5049960;28;20484;-77
2023/05/28 02:14:42;;;;;;;12.82;6.50;;;9.60;99.90;;;;;;5047927;28;20494;-77
2023/05/28 02:17:09;;;;;;;10.82;6.00;;;9.50;99.90;;;;;;5048869;28;20028;-77
2023/05/28 02:19:35;;;;;;;13.85;6.78;;;9.50;99.90;;;;;;5047060;28;20132;-77
2023/05/28 02:22:00;;;;;;;8.27;5.85;;;9.50;99.90;;;;;;5049668;28;20527;-77
2023/05/28 02:24:26;;;;;;;14.82;6.95;;;9.40;99.90;;;;;;5046435;28;20515;-77
2023/05/28 02:26:51;;;;;;;13.25;6.90;;;9.40;99.90;;;;;;5048252;28;20029;-77
2023/05/28 02:29:17;;;;;;;15.55;7.53;;;9.40;99.90;;;;;;5031515;28;20546;-77
2023/05/28 02:31:42;;;;;;;12.30;5.80;;;9.40;99.90;;;;;;5049381;28;20082;-77
2023/05/28 02:34:08;;;;;;;11.95;6.47;;;9.40;99.90;;;;;;5053508;28;20376;-77
2023/05/28 02:36:35;;;;;;;15.93;7.72;;;9.30;99.90;;;;;;5055978;28;20079;-78
2023/05/28 02:39:02;;;;;;;8.75;6.80;;;9.30;99.90;;;;;;5049164;28;20423;-77
2023/05/28 02:41:27;;;;;;;11.68;6.57;;;9.20;99.90;;;;;;5047608;28;20071;-77
2023/05/28 02:43:53;;;;;;;11.60;5.80;;;9.20;99.90;;;;;;5051654;28;20037;-78
2023/05/28 02:46:19;;;;;;;13.13;7.50;;;9.10;99.90;;;;;;5037636;28;20029;-76
2023/05/28 02:48:45;;;;;;;14.80;6.38;;;9.00;99.90;;;;;;5031620;28;20476;-77
2023/05/28 02:51:11;;;;;;;11.23;7.38;;;9.00;99.90;;;;;;5049897;28;20040;-76
2023/05/28 02:53:37;;;;;;;13.77;8.35;;;9.00;99.90;;;;;;5048914;28;20052;-77
2023/05/28 02:56:03;;;;;;;16.25;8.73;;;9.00;99.90;;;;;;5046811;28;20056;-77
2023/05/28 02:58:30;;;;;;;12.50;7.53;;;9.00;99.90;;;;;;5048044;28;20250;-78
2023/05/28 03:00:56;;;;;;;15.40;7.43;;;9.00;99.90;;;;;;5031611;28;20119;-77
2023/05/28 03:03:21;;;;;;;10.93;7.82;;;9.00;99.90;;;;;;5043460;28;20537;-77
2023/05/28 03:05:48;;;;;;;16.17;7.85;;;9.00;99.90;;;;;;5026937;28;20021;-77
2023/05/28 03:08:13;;;;;;;14.95;8.88;;;9.00;99.90;;;;;;5035749;28;20771;-76
2023/05/28 03:10:39;;;;;;;15.75;7.35;;;9.00;99.90;;;;;;5036822;28;20049;-77
2023/05/28 03:13:05;;;;;;;19.42;9.00;;;9.00;99.90;;;;;;5027613;28;20624;-77
2023/05/28 03:15:31;;;;;;;11.65;7.75;;;9.00;99.90;;;;;;5033600;28;20536;-77
2023/05/28 03:17:56;;;;;;;13.07;7.60;;;9.00;99.90;;;;;;5030876;28;20587;-77
2023/05/28 03:20:23;;;;;;;14.48;8.02;;;9.00;99.90;;;;;;5048911;28;20029;-75
2023/05/28 03:22:54;;;;;;;16.63;8.68;;;9.00;99.90;;;;;;5048517;28;20028;-76
2023/05/28 03:25:20;;;;;;;15.82;7.50;;;9.00;99.90;;;;;;5032350;28;20024;-77
2023/05/28 03:27:45;;;;;;;14.80;8.07;;;9.00;99.90;;;;;;5045200;28;20427;-76
2023/05/28 03:30:11;;;;;;;13.80;7.57;;;9.00;99.90;;;;;;5045429;28;20086;-77
2023/05/28 03:32:37;;;;;;;12.85;7.85;;;9.10;99.90;;;;;;5046726;28;20033;-77
2023/05/28 03:35:02;;;;;;;12.05;8.10;;;9.00;99.90;;;;;;5050240;28;20032;-76
2023/05/28 03:37:28;;;;;;;10.48;7.40;;;9.00;99.90;;;;;;5029166;28;20017;-77
2023/05/28 03:39:54;;;;;;;12.15;7.38;;;9.10;99.90;;;;;;5029082;28;20021;-77
2023/05/28 03:42:20;;;;;;;16.83;8.60;;;9.10;99.90;;;;;;5029318;28;20465;-77
2023/05/28 03:44:45;;;;;;;12.90;7.70;;;9.10;99.90;;;;;;5028528;28;20460;-77
2023/05/28 03:47:12;;;;;;;15.50;7.80;;;9.00;99.90;;;;;;5024876;28;20122;-77
2023/05/28 03:49:37;;;;;;;13.73;8.07;;;9.00;99.90;;;;;;5049651;28;20028;-77
2023/05/28 03:52:03;;;;;;;15.50;8.07;;;9.00;99.90;;;;;;5046235;28;20020;-77
2023/05/28 03:54:29;;;;;;;13.98;6.88;;;9.00;99.90;;;;;;5050792;28;20037;-77
2023/05/28 03:56:54;;;;;;;15.00;7.47;;;9.00;99.90;;;;;;5044981;28;20025;-77
2023/05/28 03:59:20;;;;;;;15.05;7.00;;;9.10;99.90;;;;;;5045914;28;20095;-77
2023/05/28 04:01:45;;;;;;;10.15;7.03;;;9.10;99.90;;;;;;5027755;28;20657;-77
2023/05/28 04:04:11;;;;;;;12.93;7.07;;;9.10;99.90;;;;;;5046280;28;20033;-77
2023/05/28 04:06:36;;;;;;;14.60;6.65;;;9.10;99.90;;;;;;5027532;28;20392;-77
2023/05/28 04:09:02;;;;;;;13.60;7.15;;;9.20;99.90;;;;;;5029289;28;20652;-77
2023/05/28 04:11:29;;;;;;;14.90;7.35;;;9.30;99.90;;;;;;5047059;28;20025;-77
2023/05/28 04:13:55;;;;;;;13.40;7.70;;;9.30;99.90;;;;;;5048193;28;20523;-77
2023/05/28 04:16:22;;;;;;;16.15;7.72;;;9.30;99.90;;;;;;5046135;28;20104;-77
2023/05/28 04:18:52;;;;;;;12.45;7.22;;;9.30;99.90;;;;;;5032939;28;20017;-77
2023/05/28 04:21:17;;;;;;;13.43;7.15;;;9.30;99.90;;;;;;5042861;28;20112;-77
2023/05/28 04:23:43;;;;;;;10.82;7.50;;;9.40;99.90;;;;;;5048624;28;20954;-76
2023/05/28 04:26:10;;;;;;;13.43;8.13;;;9.50;99.90;;;;;;5045590;28;20032;-76
2023/05/28 04:28:36;;;;;;;11.30;7.20;;;9.60;99.90;;;;;;5045481;28;20069;-77
2023/05/28 04:31:02;;;;;;;17.10;7.78;;;9.60;99.90;;;;;;5028031;28;20094;-76
2023/05/28 04:33:31;;;;;;;12.88;6.68;;;9.70;99.90;;;;;;5028795;28;20017;-77
2023/05/28 04:36:01;;;;;;;14.43;7.20;;;9.80;99.90;;;;;;5048598;28;20568;-77
2023/05/28 04:38:33;;;;;;;13.82;6.50;;;9.90;99.90;;;;;;5043462;28;20021;-77
2023/05/28 04:40:59;;;;;;;17.23;8.23;;;10.00;99.90;;;;;;5046934;28;20028;-77
2023/05/28 04:43:26;;;;;;;13.10;7.32;;;10.00;99.90;;;;;;5047080;28;20567;-77
2023/05/28 04:45:53;;;;;;;13.50;7.30;;;10.20;99.90;;;;;;5027775;28;20391;-77
2023/05/28 04:48:19;;;;;;;15.23;7.78;;;10.20;99.90;;;;;;5030872;28;20535;-76
2023/05/28 04:50:44;;;;;;;17.70;7.95;;;10.40;99.90;;;;;;5045694;28;20029;-77
2023/05/28 04:53:10;;;;;;;13.48;7.20;;;10.40;99.90;;;;;;5044277;28;20017;-76
2023/05/28 04:55:36;;;;;;;13.48;6.25;;;10.50;99.90;;;;;;5045002;28;20047;-77
2023/05/28 04:58:01;;;;;;;15.45;6.90;;;10.60;99.90;;;;;;5030077;28;20518;-77
2023/05/28 05:00:28;;;;;;;11.80;6.95;;;10.70;99.90;;;;;;5047929;28;20442;-78
2023/05/28 05:02:54;;;;;;;14.73;6.88;;;10.80;99.90;;;;;;5025845;28;20078;-77
2023/05/28 05:05:20;;;;;;;16.23;7.60;;;10.90;99.90;;;;;;5029091;28;20180;-77
2023/05/28 05:07:46;;;;;;;18.10;7.93;;;11.00;99.90;;;;;;5046442;28;20021;-76
2023/05/28 05:10:13;;;;;;;12.65;6.40;;;11.10;99.90;;;;;;5049577;28;20017;-78
2023/05/28 05:12:38;;;;;;;8.32;5.63;;;11.20;99.90;;;;;;5046613;28;20093;-76
2023/05/28 05:15:08;;;;;;;11.55;5.45;;;11.30;99.90;;;;;;5045869;28;20093;-77
2023/05/28 05:17:33;;;;;;;10.90;6.00;;;11.40;99.90;;;;;;5041796;28;20538;-77
2023/05/28 05:20:03;;;;;;;11.05;5.93;;;11.50;99.90;;;;;;5025930;28;20030;-77
2023/05/28 05:22:30;;;;;;;14.00;6.85;;;11.60;99.90;;;;;;5031944;28;21076;-77
2023/05/28 05:24:56;;;;;;;13.55;5.65;;;11.60;99.90;;;;;;5030819;28;20047;-76
2023/05/28 05:27:21;;;;;;;12.73;6.88;;;11.70;99.90;;;;;;5044694;28;20388;-78
2023/05/28 05:29:50;;;;;;;12.93;6.00;;;11.80;99.90;;;;;;5028373;28;20100;-76
2023/05/28 05:32:16;;;;;;;12.68;6.70;;;11.70;99.90;;;;;;5025736;28;20033;-77
2023/05/28 05:34:41;;;;;;;14.80;6.03;;;11.80;99.90;;;;;;5049767;28;20221;-76
2023/05/28 05:37:07;;;;;;;10.23;5.90;;;11.80;99.90;;;;;;5029425;28;20036;-77
2023/05/28 05:39:32;;;;;;;10.93;5.95;;;11.80;99.90;;;;;;5026030;28;20065;-78
2023/05/28 05:41:59;;;;;;;11.77;5.30;;;11.90;99.90;;;;;;5030683;28;20036;-76
2023/05/28 05:44:25;;;;;;;11.63;5.15;;;11.90;99.90;;;;;;5044413;28;20116;-77
2023/05/28 05:46:50;;;;;;;10.68;5.45;;;12.00;99.90;;;;;;5029743;28;20113;-76
2023/05/28 05:49:16;;;;;;;14.57;5.60;;;12.20;99.90;;;;;;5029959;28;20033;-76
2023/05/28 05:51:41;;;;;;;12.68;5.75;;;12.30;99.90;;;;;;5043641;28;20025;-78
2023/05/28 05:54:07;;;;;;;12.38;5.13;;;12.50;99.90;;;;;;5031999;28;20095;-76
2023/05/28 05:56:32;;;;;;;9.52;4.82;;;12.70;99.90;;;;;;5026647;28;20039;-78
2023/05/28 05:58:58;;;;;;;13.18;5.90;;;12.90;99.90;;;;;;5044111;28;20025;-77
2023/05/28 06:01:24;;;;;;;15.30;5.47;;;13.10;99.90;;;;;;5048846;28;20509;-77
2023/05/28 06:03:50;;;;;;;13.50;4.65;;;13.30;99.90;;;;;;5034995;28;20021;-77
2023/05/28 06:06:16;;;;;;;10.02;4.93;;;13.40;99.90;;;;;;5045150;28;20500;-78
2023/05/28 06:08:42;;;;;;;11.38;5.78;;;13.70;99.90;;;;;;5046714;28;20025;-77
2023/05/28 06:11:08;;;;;;;10.45;4.30;;;13.70;99.90;;;;;;5028280;28;20029;-78
2023/05/28 06:13:35;;;;;;;12.15;5.57;;;13.70;99.90;;;;;;5044573;28;20412;-76
2023/05/28 06:16:01;;;;;;;8.52;4.07;;;13.60;99.90;;;;;;5043343;28;20013;-76
2023/05/28 06:18:26;;;;;;;11.20;5.35;;;13.60;99.90;;;;;;5050281;28;20029;-77
2023/05/28 06:20:52;;;;;;;8.65;4.32;;;13.60;99.90;;;;;;5029432;28;20025;-77
2023/05/28 06:23:18;;;;;;;7.97;4.40;;;13.70;99.90;;;;;;5027419;28;20028;-77
2023/05/28 06:25:44;;;;;;;11.57;4.47;;;13.90;99.90;;;;;;5028557;28;20025;-77
2023/05/28 06:28:10;;;;;;;11.07;4.95;;;14.00;99.90;;;;;;5042117;28;20052;-76
2023/05/28 06:30:36;;;;;;;10.95;4.43;;;14.20;99.90;;;;;;5046253;28;20047;-75
2023/05/28 06:33:01;;;;;;;10.85;4.68;;;14.40;99.90;;;;;;5030279;28;20013;-76
2023/05/28 06:35:27;;;;;;;11.18;5.28;;;14.60;99.90;;;;;;5030967;28;20510;-76
2023/05/28 06:37:53;;;;;;;9.77;4.70;;;14.80;99.90;;;;;;5031578;28;20025;-78
2023/05/28 06:40:19;;;;;;;8.40;4.22;;;15.00;99.90;;;;;;5051471;28;20092;-76
2023/05/28 06:42:44;;;;;;;9.98;4.60;;;15.30;99.90;;;;;;5046106;28;20654;-76
2023/05/28 06:45:10;;;;;;;6.13;3.95;;;15.40;99.90;;;;;;5046497;28;20055;-77
2023/05/28 06:47:36;;;;;;;9.98;4.03;;;15.30;99.90;;;;;;5031227;28;20025;-77
2023/05/28 06:50:02;;;;;;;8.55;3.35;;;15.30;99.90;;;;;;5031830;28;20082;-76
2023/05/28 06:52:28;;;;;;;8.55;3.75;;;15.10;99.90;;;;;;5031808;28;20074;-77
2023/05/28 06:54:53;;;;;;;7.82;3.33;;;15.00;99.90;;;;;;5031011;28;20017;-77
2023/05/28 06:57:20;;;;;;;8.32;4.32;;;15.10;99.90;;;;;;5047187;28;20351;-77
2023/05/28 06:59:46;;;;;;;7.13;3.97;;;15.20;99.90;;;;;;5037428;28;20017;-77
2023/05/28 07:02:11;;;;;;;14.02;3.70;;;15.20;99.90;;;;;;5049044;28;20052;-77
2023/05/28 07:04:37;;;;;;;10.48;3.53;;;15.10;99.90;;;;;;5051033;28;20100;-77
2023/05/28 07:07:04;;;;;;;8.73;3.70;;;15.00;99.90;;;;;;5054814;28;20017;-78
2023/05/28 07:09:29;;;;;;;11.25;4.05;;;14.90;99.90;;;;;;5048228;28;20028;-79
2023/05/28 07:11:55;;;;;;;9.52;4.30;;;14.80;99.90;;;;;;5050109;28;20071;-77
2023/05/28 07:14:21;;;;;;;6.10;3.55;;;14.80;99.90;;;;;;5048581;28;20029;-78
2023/05/28 07:16:46;;;;;;;7.53;3.33;;;14.70;99.90;;;;;;5029024;28;20381;-77
2023/05/28 07:19:12;;;;;;;11.50;4.05;;;14.80;99.90;;;;;;5030025;28;20032;-76
2023/05/28 07:21:38;;;;;;;8.85;3.60;;;14.80;99.90;;;;;;5047209;28;20037;-78
2023/05/28 07:24:05;;;;;;;9.07;3.75;;;15.00;99.90;;;;;;5044659;28;20028;-77
2023/05/28 07:26:31;;;;;;;10.05;3.75;;;15.30;99.90;;;;;;5045940;28;20063;-77
2023/05/28 07:28:57;;;;;;;6.35;2.78;;;15.50;99.90;;;;;;5048756;28;20044;-76
2023/05/28 07:31:22;;;;;;;9.65;3.38;;;15.70;99.90;;;;;;5031980;28;20384;-77
2023/05/28 07:33:49;;;;;;;8.45;3.92;;;16.20;99.90;;;;;;5030221;28;20032;-76
2023/05/28 07:36:14;;;;;;;9.45;3.20;;;16.40;99.90;;;;;;5035950;28;20638;-76
2023/05/28 07:38:41;;;;;;;8.52;3.10;;;16.60;99.90;;;;;;5047719;28;20033;-77
2023/05/28 07:41:06;;;;;;;8.23;3.72;;;16.70;99.90;;;;;;5047491;28;20036;-77
2023/05/28 07:43:32;;;;;;;7.57;3.60;;;16.80;99.90;;;;;;5045488;28;20127;-79
2023/05/28 07:45:57;;;;;;;9.18;4.00;;;17.10;99.90;;;;;;5030361;28;20094;-78
2023/05/28 07:48:23;;;;;;;11.77;3.78;;;17.10;99.90;;;;;;5046340;28;20147;-78
2023/05/28 07:50:49;;;;;;;9.07;3.55;;;17.10;99.90;;;;;;5031680;28;20028;-77
2023/05/28 07:53:16;;;;;;;7.57;3.22;;;17.30;99.90;;;;;;5036652;28;20021;-77
2023/05/28 07:55:42;;;;;;;8.55;2.92;;;17.70;99.90;;;;;;5036935;28;20031;-79
2023/05/28 07:58:08;;;;;;;6.50;3.22;;;18.00;99.90;;;;;;5027429;28;20025;-79
2023/05/28 08:00:36;;;;;;;5.80;3.45;;;18.30;99.90;;;;;;5048784;28;20033;-79
2023/05/28 08:03:02;;;;;;;9.85;4.07;;;18.40;99.90;;;;;;5050720;28;20024;-77
2023/05/28 08:05:28;;;;;;;10.23;3.53;;;18.40;99.90;;;;;;5053335;28;20031;-77
2023/05/28 08:07:54;;;;;;;9.10;3.28;;;18.50;99.90;;;;;;5041229;28;20029;-78
2023/05/28 08:10:19;;;;;;;7.20;3.67;;;18.80;99.90;;;;;;5047253;28;20020;-78
2023/05/28 08:12:45;;;;;;;8.30;3.75;;;18.80;99.90;;;;;;5015844;28;20048;-79
2023/05/28 08:15:11;;;;;;;7.13;3.03;;;19.00;99.90;;;;;;5036896;28;20085;-79
2023/05/28 08:17:36;;;;;;;11.45;3.47;;;19.20;99.90;;;;;;5016377;28;20541;-78
2023/05/28 08:20:03;;;;;;;5.90;3.33;;;19.10;99.90;;;;;;5035067;28;20028;-79
2023/05/28 08:22:29;;;;;;;6.57;3.10;;;19.00;99.90;;;;;;5036252;28;20055;-80
2023/05/28 08:24:54;;;;;;;7.40;3.85;;;19.20;99.90;;;;;;5019458;28;20061;-78
2023/05/28 08:27:20;;;;;;;8.95;3.28;;;19.30;99.90;;;;;;5033936;28;20024;-76
2023/05/28 08:29:46;;;;;;;9.07;3.40;;;19.60;99.90;;;;;;5034483;28;20033;-78
2023/05/28 08:32:12;;;;;;;7.72;3.47;;;19.50;99.90;;;;;;5035256;28;20032;-78
2023/05/28 08:34:38;;;;;;;6.28;3.17;;;19.60;99.90;;;;;;5017196;28;20041;-78
2023/05/28 08:37:04;;;;;;;7.72;2.60;;;19.80;99.90;;;;;;5020159;28;20096;-78
2023/05/28 08:39:30;;;;;;;5.43;3.00;;;20.00;99.50;;;;;;5034431;28;20438;-77
2023/05/28 08:41:55;;;;;;;12.02;3.35;;;20.30;99.70;;;;;;5033302;28;20075;-80
2023/05/28 08:44:21;;;;;;;7.65;2.92;;;20.50;98.70;;;;;;5016375;28;20579;-78
2023/05/28 08:46:47;;;;;;;7.00;3.08;;;20.40;98.00;;;;;;5032510;28;20033;-77
2023/05/28 08:49:16;;;;;;;6.00;3.45;;;20.70;99.20;;;;;;5014212;28;20021;-77
2023/05/28 08:51:43;;;;;;;8.52;3.60;;;20.90;98.00;;;;;;5013233;28;20064;-77
2023/05/28 08:54:09;;;;;;;6.63;2.75;;;20.80;97.80;;;;;;5032735;28;20036;-76
2023/05/28 08:56:35;;;;;;;8.57;3.13;;;21.00;97.50;;;;;;5015147;28;20427;-77
2023/05/28 08:59:03;;;;;;;5.78;2.75;;;21.10;97.20;;;;;;5013803;28;20051;-78
2023/05/28 09:01:29;;;;;;;5.20;2.67;;;21.30;95.20;;;;;;5014774;28;20029;-78
2023/05/28 09:03:54;;;;;;;5.35;2.88;;;21.30;95.50;;;;;;5015363;28;20087;-77
2023/05/28 09:06:22;;;;;;;4.18;2.90;;;21.10;95.70;;;;;;5016235;28;20025;-78
2023/05/28 09:08:48;;;;;;;8.07;3.70;;;21.10;94.80;;;;;;5033168;28;20021;-77
2023/05/28 09:11:14;;;;;;;4.93;2.95;;;21.20;95.40;;;;;;5015359;28;20063;-77
2023/05/28 09:13:43;;;;;;;4.53;2.70;;;21.40;95.70;;;;;;5030708;28;20013;-77
2023/05/28 09:16:10;;;;;;;7.28;3.25;;;21.60;95.50;;;;;;5033422;28;20105;-76
2023/05/28 09:18:36;;;;;;;7.30;3.35;;;21.40;94.40;;;;;;5035045;28;20112;-78
2023/05/28 09:21:08;;;;;;;7.65;2.97;;;21.10;93.50;;;;;;5032633;28;20104;-78
2023/05/28 09:23:34;;;;;;;6.30;2.50;;;21.30;92.80;;;;;;5015404;28;20063;-79
2023/05/28 09:26:00;;;;;;;6.93;3.50;;;21.30;94.10;;;;;;5037912;28;20106;-77
2023/05/28 09:28:29;;;;;;;5.55;3.33;;;21.30;93.00;;;;;;5032571;28;20048;-78
2023/05/28 09:31:03;;;;;;;8.45;2.65;;;21.30;93.90;;;;;;5018816;28;20103;-78
2023/05/28 09:33:29;;;;;;;8.27;2.78;;;21.40;93.40;;;;;;5011138;28;20145;-79
2023/05/28 09:36:00;;;;;;;7.07;3.30;;;21.30;94.60;;;;;;5017947;28;20853;-78
2023/05/28 09:38:26;;;;;;;7.72;3.50;;;21.40;94.30;;;;;;5015485;28;20100;-79
2023/05/28 09:40:57;;;;;;;5.60;3.08;;;21.50;95.10;;;;;;5015527;28;20136;-77
2023/05/28 09:43:29;;;;;;;8.23;3.45;;;21.70;93.80;;;;;;5015567;28;20025;-77
2023/05/28 09:46:08;;;;;;;5.47;3.38;;;21.60;93.50;;;;;;5032908;28;20025;-79
2023/05/28 09:48:33;;;;;;;9.25;3.90;;;21.70;94.10;;;;;;5033502;28;20021;-78
2023/05/28 09:51:03;;;;;;;7.10;3.33;;;21.70;93.20;;;;;;5032787;28;20088;-77
2023/05/28 09:53:33;;;;;;;9.70;3.72;;;21.70;93.50;;;;;;5019248;28;20672;-77
2023/05/28 09:56:01;;;;;;;7.68;3.65;;;21.60;94.20;;;;;;5029926;28;20044;-78
2023/05/28 09:58:34;;;;;;;6.85;3.42;;;21.70;94.90;;;;;;5014139;28;20792;-78
2023/05/28 10:01:13;;;;;;;6.50;3.03;;;21.70;93.20;;;;;;5016837;28;20119;-80
2023/05/28 10:03:43;;;;;;;6.75;3.60;;;21.80;94.20;;;;;;5011704;28;20033;-79
2023/05/28 10:06:17;;;;;;;5.10;2.88;;;21.90;93.70;;;;;;5031537;28;20581;-77
2023/05/28 10:08:49;;;;;;;5.95;3.05;;;22.10;93.90;;;;;;5037091;28;20686;-79
2023/05/28 10:11:17;;;;;;;6.28;2.78;;;22.20;93.90;;;;;;5011498;28;20503;-79
2023/05/28 10:13:42;;;;;;;4.85;2.92;;;22.30;92.80;;;;;;5019656;28;20112;-79
2023/05/28 10:16:08;;;;;;;5.57;3.03;;;22.60;93.20;;;;;;5018947;28;20108;-78
2023/05/28 10:18:35;;;;;;;5.35;3.25;;;22.10;91.80;;;;;;5035162;28;20650;-78
2023/05/28 10:21:01;;;;;;;8.02;3.03;;;22.20;92.40;;;;;;5034386;28;20133;-79
2023/05/28 10:23:28;;;;;;;5.78;3.38;;;21.90;92.00;;;;;;5015576;28;20830;-76
2023/05/28 10:25:54;;;;;;;6.85;3.08;;;21.30;92.40;;;;;;5035736;28;20099;-78
2023/05/28 10:28:21;;;;;;;6.10;2.88;;;21.30;93.30;;;;;;5041627;28;20060;-78
2023/05/28 10:31:10;;;;;;;8.13;3.38;;;21.20;92.30;;;;;;5025256;28;20059;-76
2023/05/28 10:33:40;;;;;;;7.75;3.42;;;21.10;93.40;;;;;;5039462;28;20013;-78
2023/05/28 10:36:13;;;;;;;7.85;3.75;;;21.20;93.50;;;;;;5040744;28;20013;-78
2023/05/28 10:38:44;;;;;;;6.95;3.55;;;21.30;92.80;;;;;;5038496;28;20224;-77
2023/05/28 10:41:10;;;;;;;7.22;3.17;;;21.30;92.80;;;;;;5038900;28;20104;-78
